createdAt,value
2023-01-11T00:02:02.689Z,96102.53
2023-01-11T00:04:29.916Z,96103.81
2023-01-11T00:06:57.607Z,96097.25
2023-01-11T00:09:24.837Z,96101.31
2023-01-11T00:11:52.123Z,96100.56
2023-01-11T00:14:21.002Z,96097.31
2023-01-11T00:16:48.205Z,96093.91
2023-01-11T00:19:15.372Z,96087.22
2023-01-11T00:21:42.555Z,96084.34
2023-01-11T00:24:09.667Z,96084.16
2023-01-11T00:26:36.865Z,96094.00
2023-01-11T00:29:04.366Z,96091.72
2023-01-11T00:31:33.050Z,96079.56
2023-01-11T00:34:00.210Z,96083.63
2023-01-11T00:36:27.464Z,96096.06
2023-01-11T00:38:54.724Z,96094.19
2023-01-11T00:41:23.405Z,96092.91
2023-01-11T00:43:50.926Z,96088.66
2023-01-11T00:46:18.154Z,96087.50
2023-01-11T00:48:46.685Z,96087.03
2023-01-11T00:51:13.784Z,96084.94
2023-01-11T00:53:40.944Z,96087.50
2023-01-11T00:56:08.188Z,96082.78
2023-01-11T00:58:35.404Z,96078.34
2023-01-11T01:01:07.204Z,96069.66
2023-01-11T01:03:34.446Z,96078.53
2023-01-11T01:06:03.095Z,96075.00
2023-01-11T01:08:30.203Z,96070.38
2023-01-11T01:10:57.183Z,96063.97
2023-01-11T01:13:24.245Z,96077.03
2023-01-11T01:15:57.050Z,96061.91
2023-01-11T01:18:24.227Z,96063.38
2023-01-11T01:20:51.487Z,96071.97
2023-01-11T01:23:20.090Z,96056.03
2023-01-11T01:25:47.410Z,96055.41
2023-01-11T01:28:14.463Z,96055.63
2023-01-11T01:30:41.469Z,96056.72
2023-01-11T01:33:08.510Z,96044.84
2023-01-11T01:35:38.094Z,96039.41
2023-01-11T01:38:05.164Z,96037.44
2023-01-11T01:40:33.849Z,96029.66
2023-01-11T01:43:00.920Z,96031.72
2023-01-11T01:45:28.831Z,96039.38
2023-01-11T01:48:00.794Z,96037.16
2023-01-11T01:50:33.101Z,96037.94
2023-01-11T01:53:08.344Z,96023.03
2023-01-11T01:55:43.310Z,96031.72
2023-01-11T01:58:13.972Z,96028.16
2023-01-11T02:00:44.070Z,96029.81
2023-01-11T02:03:17.423Z,96039.63
2023-01-11T02:05:45.487Z,96050.22
2023-01-11T02:08:23.203Z,96044.25
2023-01-11T02:10:53.724Z,96055.06
2023-01-11T02:13:22.314Z,96045.53
2023-01-11T02:15:50.559Z,96050.13
2023-01-11T02:18:17.844Z,96051.84
2023-01-11T02:21:19.705Z,96048.44
2023-01-11T02:24:19.087Z,96041.88
2023-01-11T02:27:24.365Z,96042.69
2023-01-11T02:30:05.845Z,96036.97
2023-01-11T02:32:47.623Z,96035.75
2023-01-11T02:35:27.252Z,96030.50
2023-01-11T02:38:05.508Z,96028.28
2023-01-11T02:40:46.523Z,96039.19
2023-01-11T02:43:18.744Z,96023.34
2023-01-11T02:45:59.557Z,96012.28
2023-01-11T02:48:37.969Z,95998.81
2023-01-11T02:51:12.374Z,95989.59
2023-01-11T02:53:45.046Z,95987.91
2023-01-11T02:56:18.605Z,95999.41
2023-01-11T02:58:50.537Z,95991.25
2023-01-11T03:01:20.210Z,95976.63
2023-01-11T03:03:47.408Z,95970.50
2023-01-11T03:06:21.272Z,95971.09
2023-01-11T03:09:12.525Z,95960.47
2023-01-11T03:12:02.048Z,95963.50
2023-01-11T03:14:44.751Z,95964.19
2023-01-11T03:17:31.412Z,95962.84
2023-01-11T03:20:09.683Z,95963.56
2023-01-11T03:22:51.225Z,95963.25
2023-01-11T03:25:26.502Z,95956.66
2023-01-11T03:28:02.668Z,95953.56
2023-01-11T03:30:37.951Z,95962.06
2023-01-11T03:33:12.664Z,95962.28
2023-01-11T03:35:47.924Z,95961.91
2023-01-11T03:38:23.467Z,95959.00
2023-01-11T03:40:57.242Z,95960.06
2023-01-11T03:43:28.167Z,95967.03
2023-01-11T03:46:01.164Z,95970.72
2023-01-11T03:48:35.829Z,95971.03
2023-01-11T03:51:07.824Z,95966.97
2023-01-11T03:53:39.005Z,95955.22
2023-01-11T03:56:12.524Z,95946.19
2023-01-11T03:58:39.949Z,95952.91
2023-01-11T04:01:08.528Z,95933.88
2023-01-11T04:03:37.123Z,95926.00
2023-01-11T04:06:04.818Z,95922.84
2023-01-11T04:08:31.944Z,95916.72
2023-01-11T04:10:59.084Z,95915.69
2023-01-11T04:13:26.351Z,95913.75
2023-01-11T04:15:53.662Z,95923.53
2023-01-11T04:18:20.868Z,95925.91
2023-01-11T04:20:49.504Z,95922.78
2023-01-11T04:23:16.785Z,95928.53
2023-01-11T04:25:43.893Z,95914.47
2023-01-11T04:28:11.287Z,95914.97
2023-01-11T04:30:38.625Z,95917.47
2023-01-11T04:33:05.710Z,95918.03
2023-01-11T04:35:32.814Z,95923.47
2023-01-11T04:38:01.349Z,95914.44
2023-01-11T04:40:28.584Z,95909.69
2023-01-11T04:42:55.785Z,95901.25
2023-01-11T04:45:23.531Z,95909.47
2023-01-11T04:47:54.649Z,95905.75
2023-01-11T04:50:21.793Z,95911.88
2023-01-11T04:52:48.842Z,95923.19
2023-01-11T04:55:17.683Z,95914.91
2023-01-11T04:57:44.803Z,95919.31
2023-01-11T05:00:13.783Z,95921.34
2023-01-11T05:02:40.924Z,95913.78
2023-01-11T05:05:10.394Z,95912.16
2023-01-11T05:07:37.608Z,95901.56
2023-01-11T05:10:05.749Z,95909.44
2023-01-11T05:12:34.491Z,95908.00
2023-01-11T05:15:01.856Z,95914.28
2023-01-11T05:17:29.049Z,95916.16
2023-01-11T05:19:56.242Z,95927.22
2023-01-11T05:22:23.430Z,95918.38
2023-01-11T05:24:50.585Z,95916.38
2023-01-11T05:27:17.874Z,95910.97
2023-01-11T05:29:46.470Z,95903.75
2023-01-11T05:32:13.950Z,95915.25
2023-01-11T05:34:41.222Z,95909.16
2023-01-11T05:37:08.522Z,95912.34
2023-01-11T05:39:35.613Z,95908.91
2023-01-11T05:42:02.708Z,95901.00
2023-01-11T05:44:29.963Z,95902.69
2023-01-11T05:46:59.197Z,95898.00
2023-01-11T05:49:26.455Z,95895.53
2023-01-11T05:51:53.510Z,95897.75
2023-01-11T05:54:20.957Z,95898.31
2023-01-11T05:56:48.163Z,95897.53
2023-01-11T05:59:15.177Z,95895.06
2023-01-11T06:01:42.481Z,95884.19
2023-01-11T06:04:11.179Z,95882.25
2023-01-11T06:06:38.450Z,95891.84
2023-01-11T06:09:05.617Z,95888.97
2023-01-11T06:11:32.870Z,95886.94
2023-01-11T06:14:00.023Z,95895.84
2023-01-11T06:16:27.283Z,95892.09
2023-01-11T06:18:54.880Z,95894.59
2023-01-11T06:21:23.494Z,95898.97
2023-01-11T06:23:51.639Z,95899.47
2023-01-11T06:26:21.615Z,95893.78
2023-01-11T06:28:49.752Z,95894.19
2023-01-11T06:31:18.260Z,95893.66
2023-01-11T06:33:46.502Z,95903.50
2023-01-11T06:36:15.118Z,95905.84
2023-01-11T06:38:44.896Z,95915.00
2023-01-11T06:41:13.174Z,95906.16
2023-01-11T06:43:40.998Z,95902.69
2023-01-11T06:46:12.416Z,95916.25
2023-01-11T06:48:40.433Z,95905.31
2023-01-11T06:51:07.583Z,95905.59
2023-01-11T06:53:34.815Z,95915.34
2023-01-11T06:56:03.590Z,95907.44
2023-01-11T06:58:30.813Z,95904.13
2023-01-11T07:00:59.960Z,95902.50
2023-01-11T07:03:27.301Z,95906.28
2023-01-11T07:05:56.648Z,95919.56
2023-01-11T07:08:25.814Z,95921.91
2023-01-11T07:10:53.007Z,95928.56
2023-01-11T07:13:23.110Z,95920.72
2023-01-11T07:15:50.981Z,95928.03
2023-01-11T07:18:19.402Z,95907.25
2023-01-11T07:20:46.661Z,95900.59
2023-01-11T07:23:14.127Z,95896.97
2023-01-11T07:25:41.317Z,95911.63
2023-01-11T07:28:09.455Z,95903.00
2023-01-11T07:30:56.086Z,95901.66
2023-01-11T07:33:26.048Z,95899.25
2023-01-11T07:35:53.769Z,95910.63
2023-01-11T07:38:21.176Z,95909.09
2023-01-11T07:40:48.372Z,95918.56
2023-01-11T07:43:15.815Z,95905.25
2023-01-11T07:45:47.226Z,95913.53
2023-01-11T07:48:16.352Z,95904.78
2023-01-11T07:50:45.161Z,95913.81
2023-01-11T07:53:14.008Z,95908.00
2023-01-11T07:55:41.419Z,95910.03
2023-01-11T07:58:11.747Z,95902.13
2023-01-11T08:00:39.912Z,95898.81
2023-01-11T08:03:09.125Z,95908.81
2023-01-11T08:05:36.921Z,95898.44
2023-01-11T08:08:04.910Z,95897.81
2023-01-11T08:10:32.454Z,95904.38
2023-01-11T08:12:59.873Z,95899.13
2023-01-11T08:15:27.053Z,95899.34
2023-01-11T08:17:54.343Z,95894.50
2023-01-11T08:20:23.274Z,95907.91
2023-01-11T08:22:50.674Z,95919.13
2023-01-11T08:25:17.939Z,95917.75
2023-01-11T08:27:45.421Z,95918.69
2023-01-11T08:30:14.418Z,95926.78
2023-01-11T08:32:41.679Z,95918.97
2023-01-11T08:35:09.596Z,95917.94
2023-01-11T08:37:38.263Z,95923.16
2023-01-11T08:40:07.010Z,95916.78
2023-01-11T08:42:34.238Z,95918.38
2023-01-11T08:45:01.384Z,95923.38
2023-01-11T08:47:28.595Z,95915.16
2023-01-11T08:49:55.775Z,95929.78
2023-01-11T08:52:23.295Z,95920.06
2023-01-11T08:54:52.375Z,95929.88
2023-01-11T08:57:20.085Z,95929.25
2023-01-11T08:59:47.214Z,95928.94
2023-01-11T09:02:14.654Z,95930.38
2023-01-11T09:04:42.414Z,95915.22
2023-01-11T09:07:09.719Z,95916.47
2023-01-11T09:09:36.900Z,95924.25
2023-01-11T09:12:06.116Z,95916.78
2023-01-11T09:14:33.460Z,95914.59
2023-01-11T09:17:00.676Z,95913.13
2023-01-11T09:19:28.559Z,95908.34
2023-01-11T09:21:55.697Z,95913.91
2023-01-11T09:24:22.953Z,95927.06
2023-01-11T09:26:50.130Z,95924.25
2023-01-11T09:29:19.467Z,95935.06
2023-01-11T09:31:46.680Z,95945.72
2023-01-11T09:34:13.887Z,95949.25
2023-01-11T09:36:41.042Z,95939.84
2023-01-11T09:39:10.438Z,95931.81
2023-01-11T09:42:05.813Z,95928.22
2023-01-11T09:44:37.235Z,95931.19
2023-01-11T09:47:17.350Z,95932.94
2023-01-11T09:49:52.874Z,95938.97
2023-01-11T09:52:27.238Z,95944.44
2023-01-11T09:54:54.657Z,95936.56
2023-01-11T09:57:39.256Z,95930.84
2023-01-11T10:00:22.820Z,95938.06
2023-01-11T10:03:10.480Z,95940.13
2023-01-11T10:05:54.160Z,95942.78
2023-01-11T10:18:26.621Z,95931.31
2023-01-11T10:18:38.837Z,95925.16
2023-01-11T10:20:36.360Z,95932.06
2023-01-11T10:23:16.218Z,95919.94
2023-01-11T10:25:47.019Z,95911.94
2023-01-11T10:28:22.863Z,95906.31
2023-01-11T10:30:55.120Z,95902.25
2023-01-11T10:33:31.974Z,95909.31
2023-01-11T10:36:06.595Z,95914.28
2023-01-11T10:38:42.920Z,95911.06
2023-01-11T10:41:20.185Z,95906.63
2023-01-11T10:43:57.736Z,95909.00
2023-01-11T10:46:28.110Z,95898.16
2023-01-11T10:49:12.713Z,95904.97
2023-01-11T10:51:47.031Z,95904.69
2023-01-11T10:54:17.335Z,95914.53
2023-01-11T10:57:02.882Z,95910.22
2023-01-11T10:59:52.714Z,95901.00
2023-01-11T11:02:39.470Z,95900.03
2023-01-11T11:05:27.447Z,95902.47
2023-01-11T11:08:02.079Z,95898.41
2023-01-11T11:10:38.395Z,95905.53
2023-01-11T11:13:17.276Z,95897.47
2023-01-11T11:15:55.288Z,95899.06
2023-01-11T11:18:24.091Z,95894.56
2023-01-11T11:20:52.798Z,95890.97
2023-01-11T11:23:25.795Z,95901.13
2023-01-11T11:25:58.874Z,95900.16
2023-01-11T11:28:28.968Z,95901.22
2023-01-11T11:30:59.727Z,95894.22
2023-01-11T11:33:36.501Z,95895.47
2023-01-11T11:36:07.526Z,95903.22
2023-01-11T11:38:37.504Z,95904.25
2023-01-11T11:41:08.039Z,95905.84
2023-01-11T11:43:36.783Z,95909.09
2023-01-11T11:46:06.147Z,95917.00
2023-01-11T11:48:35.156Z,95912.44
2023-01-11T11:51:08.356Z,95916.69
2023-01-11T11:53:42.874Z,95911.28
2023-01-11T11:56:23.334Z,95917.44
2023-01-11T11:58:52.299Z,95915.63
2023-01-11T12:01:25.998Z,95907.53
2023-01-11T12:03:59.178Z,95903.53
2023-01-11T12:06:30.359Z,95897.25
2023-01-11T12:09:02.818Z,95904.03
2023-01-11T12:11:33.414Z,95906.44
2023-01-11T12:14:06.684Z,95902.78
2023-01-11T12:16:40.222Z,95905.75
2023-01-11T12:19:26.134Z,95903.13
2023-01-11T12:22:11.571Z,95902.88
2023-01-11T12:24:38.793Z,95894.94
2023-01-11T12:27:24.189Z,95895.66
2023-01-11T12:30:11.441Z,95898.09
2023-01-11T12:33:09.045Z,95898.56
2023-01-11T12:35:52.123Z,95892.97
2023-01-11T12:38:38.328Z,95894.50
2023-01-11T12:41:41.714Z,95901.16
2023-01-11T12:44:20.100Z,95901.44
2023-01-11T12:47:03.106Z,95900.38
2023-01-11T12:49:46.074Z,95901.00
2023-01-11T12:52:41.415Z,95899.09
2023-01-11T12:55:31.847Z,95905.59
2023-01-11T12:58:06.101Z,95905.13
2023-01-11T13:00:56.202Z,95907.94
2023-01-11T13:03:50.018Z,95899.94
2023-01-11T13:06:25.358Z,95896.06
2023-01-11T13:09:03.838Z,95905.50
2023-01-11T13:11:48.473Z,95907.91
2023-01-11T13:14:44.176Z,95914.06
2023-01-11T13:17:25.416Z,95913.00
2023-01-11T13:20:07.495Z,95915.69
2023-01-11T13:22:40.719Z,95910.28
2023-01-11T13:25:18.774Z,95908.00
2023-01-11T13:27:50.574Z,95909.84
2023-01-11T13:30:19.577Z,95921.81
2023-01-11T13:32:55.282Z,95915.22
2023-01-11T13:35:35.556Z,95922.25
2023-01-11T13:38:17.134Z,95923.06
2023-01-11T13:40:49.990Z,95925.06
2023-01-11T13:43:26.875Z,95930.09
2023-01-11T13:46:00.884Z,95929.13
2023-01-11T13:48:36.115Z,95924.31
2023-01-11T13:51:18.417Z,95934.16
2023-01-11T13:53:58.454Z,95929.28
2023-01-11T13:56:32.329Z,95931.19
2023-01-11T13:59:09.395Z,95923.06
2023-01-11T14:01:48.612Z,95923.53
2023-01-11T14:04:23.978Z,95921.28
2023-01-11T14:07:15.514Z,95931.16
2023-01-11T14:10:08.248Z,95932.25
2023-01-11T14:12:54.317Z,95939.63
2023-01-11T14:15:32.996Z,95943.97
2023-01-11T14:18:28.724Z,95943.59
2023-01-11T14:21:06.790Z,95947.13
2023-01-11T14:23:45.141Z,95944.22
2023-01-11T14:26:44.719Z,95954.97
2023-01-11T14:29:44.071Z,95965.13
2023-01-11T14:32:45.308Z,95974.88
2023-01-11T14:35:49.327Z,95981.72
2023-01-11T14:38:49.076Z,95982.91
2023-01-11T14:41:47.971Z,95992.72
2023-01-11T14:44:36.568Z,95999.22
2023-01-11T14:47:39.710Z,96015.28
2023-01-11T14:50:21.686Z,96014.00
2023-01-11T14:52:54.039Z,96019.25
2023-01-11T14:55:26.065Z,96022.81
2023-01-11T14:58:15.648Z,96027.34
2023-01-11T15:01:06.155Z,96032.94
2023-01-11T15:03:47.930Z,96045.38
2023-01-11T15:06:18.512Z,96041.41
2023-01-11T15:08:48.711Z,96042.75
2023-01-11T15:11:35.506Z,96046.66
2023-01-11T15:14:22.403Z,96059.09
2023-01-11T15:16:53.830Z,96063.69
2023-01-11T15:19:29.296Z,96070.63
2023-01-11T15:21:59.055Z,96075.03
2023-01-11T15:24:32.039Z,96075.41
2023-01-11T15:27:01.786Z,96078.72
2023-01-11T15:29:34.500Z,96092.00
2023-01-11T15:32:17.870Z,96093.63
2023-01-11T15:34:48.312Z,96100.56
2023-01-11T15:37:40.488Z,96098.78
2023-01-11T15:40:17.856Z,96097.25
2023-01-11T15:43:26.913Z,96081.28
2023-01-11T15:46:25.642Z,96082.72
2023-01-11T15:49:27.002Z,96082.72
2023-01-11T15:52:16.737Z,96090.38
2023-01-11T15:55:16.353Z,96094.97
2023-01-11T15:58:07.472Z,96098.31
2023-01-11T16:00:58.175Z,96096.16
2023-01-11T16:04:04.312Z,96104.19
2023-01-11T16:06:41.800Z,96103.09
2023-01-11T16:09:43.150Z,96112.94
2023-01-11T16:12:41.253Z,96116.19
2023-01-11T16:15:33.560Z,96113.91
2023-01-11T16:18:14.292Z,96114.09
2023-01-11T16:20:46.854Z,96104.78
2023-01-11T16:23:21.152Z,96122.13
2023-01-11T16:25:56.308Z,96135.00
2023-01-11T16:28:24.819Z,96130.16
2023-01-11T16:31:00.288Z,96143.56
2023-01-11T16:33:30.429Z,96146.88
2023-01-11T16:36:10.368Z,96143.94
2023-01-11T16:38:47.154Z,96131.19
2023-01-11T16:41:17.808Z,96135.69
2023-01-11T16:43:54.868Z,96140.38
2023-01-11T16:47:13.180Z,96141.53
2023-01-11T16:49:42.423Z,96148.75
2023-01-11T16:52:43.116Z,96163.47
2023-01-11T16:55:30.556Z,96173.22
2023-01-11T16:58:02.583Z,96169.72
2023-01-11T17:00:33.928Z,96161.16
2023-01-11T17:03:04.971Z,96164.22
2023-01-11T17:05:32.217Z,96166.69
2023-01-11T17:07:59.457Z,96179.38
2023-01-11T17:10:28.336Z,96178.16
2023-01-11T17:13:24.698Z,96169.47
2023-01-11T17:16:03.017Z,96165.72
2023-01-11T17:18:30.516Z,96170.56
2023-01-11T17:20:57.991Z,96177.44
2023-01-11T17:23:25.651Z,96190.97
2023-01-11T17:25:57.311Z,96182.13
2023-01-11T17:28:26.000Z,96179.34
2023-01-11T17:30:54.325Z,96186.00
2023-01-11T17:33:27.532Z,96189.81
2023-01-11T17:35:56.004Z,96184.91
2023-01-11T17:38:26.226Z,96203.03
2023-01-11T17:40:55.568Z,96208.28
2023-01-11T17:43:27.545Z,96202.06
2023-01-11T17:45:56.747Z,96203.69
2023-01-11T17:48:26.938Z,96211.19
2023-01-11T17:50:57.127Z,96225.88
2023-01-11T17:53:26.469Z,96228.03
2023-01-11T17:55:57.287Z,96225.63
2023-01-11T17:58:27.494Z,96211.19
2023-01-11T18:01:19.523Z,96214.78
2023-01-11T18:03:49.846Z,96213.44
2023-01-11T18:06:24.651Z,96223.56
2023-01-11T18:08:54.390Z,96207.66
2023-01-11T18:11:25.666Z,96219.56
2023-01-11T18:13:58.643Z,96214.78
2023-01-11T18:16:26.256Z,96215.06
2023-01-11T18:18:56.127Z,96224.09
2023-01-11T18:21:40.117Z,96228.50
2023-01-11T18:24:40.496Z,96234.44
2023-01-11T18:27:23.892Z,96234.44
2023-01-11T18:29:54.157Z,96233.91
2023-01-11T18:32:22.460Z,96236.09
2023-01-11T18:34:53.870Z,96242.28
2023-01-11T18:37:21.637Z,96240.88
2023-01-11T18:39:51.717Z,96248.00
2023-01-11T18:42:25.016Z,96248.06
2023-01-11T18:44:53.842Z,96250.06
2023-01-11T18:47:23.945Z,96261.03
2023-01-11T18:49:53.107Z,96268.25
2023-01-11T18:52:23.027Z,96265.19
2023-01-11T18:54:50.970Z,96261.75
2023-01-11T18:57:18.179Z,96260.66
2023-01-11T18:59:45.578Z,96265.44
2023-01-11T19:04:48.387Z,96286.56
2023-01-11T19:07:16.709Z,96293.41
2023-01-11T19:09:44.049Z,96282.94
2023-01-11T19:12:11.789Z,96290.78
2023-01-11T19:14:38.884Z,96287.00
2023-01-11T19:17:06.731Z,96284.22
2023-01-11T19:19:36.521Z,96286.91
2023-01-11T19:22:04.080Z,96287.00
2023-01-11T19:24:31.931Z,96288.81
2023-01-11T19:26:59.159Z,96291.03
2023-01-11T19:29:26.319Z,96294.84
2023-01-11T19:31:53.910Z,96295.22
2023-01-11T19:34:21.296Z,96296.81
2023-01-11T19:36:50.703Z,96281.69
2023-01-11T19:39:18.000Z,96282.75
2023-01-11T19:41:45.218Z,96271.72
2023-01-11T19:44:12.437Z,96275.06
2023-01-11T19:46:40.003Z,96269.31
2023-01-11T19:49:07.158Z,96274.53
2023-01-11T19:51:34.423Z,96280.66
2023-01-11T19:54:03.017Z,96271.06
2023-01-11T19:56:31.919Z,96283.06
2023-01-11T19:58:59.478Z,96290.16
2023-01-11T20:01:26.747Z,96289.69
2023-01-11T20:03:54.103Z,96291.34
2023-01-11T20:06:21.381Z,96294.59
2023-01-11T20:08:48.604Z,96299.00
2023-01-11T20:11:19.242Z,96302.88
2023-01-11T20:13:46.588Z,96299.91
2023-01-11T20:16:14.323Z,96301.72
2023-01-11T20:18:41.736Z,96308.41
2023-01-11T20:21:09.764Z,96301.72
2023-01-11T20:23:37.377Z,96294.22
2023-01-11T20:26:07.776Z,96302.25
2023-01-11T20:28:36.345Z,96314.31
2023-01-11T20:31:07.999Z,96318.06
2023-01-11T20:33:35.288Z,96306.97
2023-01-11T20:36:11.721Z,96309.41
2023-01-11T20:38:39.058Z,96317.25
2023-01-11T20:41:11.300Z,96329.31
2023-01-11T20:43:41.375Z,96332.75
2023-01-11T20:46:08.702Z,96330.28
2023-01-11T20:48:35.898Z,96324.66
2023-01-11T20:51:04.078Z,96332.38
2023-01-11T20:53:31.381Z,96324.97
2023-01-11T20:55:58.538Z,96329.91
2023-01-11T20:58:25.797Z,96327.28
2023-01-11T21:00:54.375Z,96320.44
2023-01-11T21:03:24.778Z,96330.91
2023-01-11T21:05:51.896Z,96325.31
2023-01-11T21:08:19.003Z,96335.44
2023-01-11T21:10:46.156Z,96335.25
2023-01-11T21:13:13.357Z,96336.78
2023-01-11T21:15:40.589Z,96339.84
2023-01-11T21:18:09.284Z,96339.66
2023-01-11T21:20:36.456Z,96344.56
2023-01-11T21:23:03.655Z,96351.41
2023-01-11T21:25:33.995Z,96345.38
2023-01-11T21:28:01.203Z,96348.53
2023-01-11T21:30:28.664Z,96359.63
2023-01-11T21:32:55.862Z,96370.28
2023-01-11T21:35:24.626Z,96367.81
2023-01-11T21:37:51.818Z,96383.38
2023-01-11T21:40:20.319Z,96394.47
2023-01-11T21:42:47.930Z,96385.97
2023-01-11T21:45:15.256Z,96380.94
2023-01-11T21:47:44.823Z,96367.22
2023-01-11T21:50:12.857Z,96363.59
2023-01-11T21:52:41.502Z,96368.44
2023-01-11T21:55:09.277Z,96374.50
2023-01-11T21:57:36.560Z,96375.59
2023-01-11T22:00:04.016Z,96377.88
2023-01-11T22:02:31.325Z,96389.63
2023-01-11T22:04:58.513Z,96395.84
2023-01-11T22:07:25.658Z,96390.97
2023-01-11T22:10:04.688Z,96393.78
2023-01-11T22:12:34.097Z,96382.47
2023-01-11T22:15:01.201Z,96379.56
2023-01-11T22:17:28.370Z,96379.09
2023-01-11T22:19:55.458Z,96376.03
2023-01-11T22:22:22.718Z,96380.25
2023-01-11T22:24:50.027Z,96378.63
2023-01-11T22:27:18.754Z,96386.31
2023-01-11T22:29:45.951Z,96386.19
2023-01-11T22:32:13.142Z,96382.94
2023-01-11T22:34:40.302Z,96374.09
2023-01-11T22:37:07.536Z,96376.91
2023-01-11T22:39:34.637Z,96363.97
2023-01-11T22:42:01.737Z,96368.41
2023-01-11T22:44:30.403Z,96369.56
2023-01-11T22:46:57.606Z,96375.94
2023-01-11T22:49:24.817Z,96380.91
2023-01-11T22:51:52.099Z,96394.31
2023-01-11T22:54:19.578Z,96394.13
2023-01-11T22:56:47.675Z,96399.53
2023-01-11T22:59:14.896Z,96401.97
2023-01-11T23:01:43.515Z,96391.06
2023-01-11T23:04:13.620Z,96394.03
2023-01-11T23:06:42.597Z,96398.81
2023-01-11T23:09:15.616Z,96406.00
2023-01-11T23:11:43.518Z,96413.19
2023-01-11T23:14:12.656Z,96405.50
2023-01-11T23:16:40.972Z,96413.72
2023-01-11T23:19:11.096Z,96409.97
2023-01-11T23:21:41.015Z,96412.06
2023-01-11T23:24:09.269Z,96423.34
2023-01-11T23:26:41.732Z,96416.97
2023-01-11T23:29:09.061Z,96421.84
2023-01-11T23:31:36.242Z,96426.91
2023-01-11T23:34:04.232Z,96434.59
2023-01-11T23:36:36.133Z,96426.38
2023-01-11T23:39:03.796Z,96420.81
2023-01-11T23:41:31.059Z,96401.69
2023-01-11T23:43:58.536Z,96398.22
2023-01-11T23:46:26.573Z,96393.50
2023-01-11T23:48:53.716Z,96386.47
2023-01-11T23:51:20.859Z,96390.59
2023-01-11T23:53:50.640Z,96391.22
2023-01-11T23:56:17.858Z,96388.34
2023-01-11T23:58:44.957Z,96385.88
